This is the latest recevied weather packets stored in our database for station/object AE6DC-5. If no packets are shown the sender has not sent any weather packets the latest 10 day(s).
| Time | Temp. | Humidity | Pressure | Rain* | Wind** | Luminosity | Snow |
|---|---|---|---|---|---|---|---|
| 1777500019 | 13.33° C | 86% | 1018.8 hPa | 0 mm | - | 452 W/m² | - |
| 1777499659 | 13.33° C | 86% | 1017.9 hPa | 0 mm | - | 863 W/m² | - |
| 1777498217 | 13.33° C | 87% | 1018.4 hPa | 0 mm | - | 776 W/m² | - |
| 1777496420 | 13.33° C | 87% | 1018.6 hPa | 0 mm | - | 596 W/m² | - |
| 1777493538 | 12.78° C | 89% | 1018.8 hPa | 0 mm | - | 489 W/m² | - |
| 1777491019 | 13.33° C | 88% | 1018.8 hPa | 0 mm | - | 615 W/m² | - |
| 1777489939 | 13.33° C | 87% | 1019 hPa | 0 mm | - | 647 W/m² | - |
| 1777489219 | 13.33° C | 87% | 1018.6 hPa | 0 mm | - | 956 W/m² | - |
| 1777487423 | 13.33° C | 88% | 1018.6 hPa | 0 mm | - | 874 W/m² | - |
| 1777485989 | 13.33° C | 89% | 1018.5 hPa | 0 mm | - | 823 W/m² | - |
| 1777484898 | 13.33° C | 88% | 1018.4 hPa | 0 mm | - | 786 W/m² | - |
| 1777484538 | 13.33° C | 88% | 1018.5 hPa | 0 mm | - | 773 W/m² | - |
| 1777483098 | 13.33° C | 87% | 1018.5 hPa | 0 mm | - | 709 W/m² | - |
| 1777482379 | 13.33° C | 88% | 1018.6 hPa | 0 mm | - | 678 W/m² | - |
| 1777479859 | 12.78° C | 88% | 1018.6 hPa | 0 mm | - | 549 W/m² | - |
| 1777475917 | 12.78° C | 89% | 1018.7 hPa | 0.25 mm | - | 320 W/m² | - |
| 1777475537 | 12.78° C | 89% | 1018.7 hPa | 0.25 mm | - | 298 W/m² | - |
| 1777474461 | 12.78° C | 90% | 1018.8 hPa | 0 mm | - | 239 W/m² | - |
| 1777467269 | 12.22° C | 90% | 1018.3 hPa | 0 mm | - | 0 W/m² | - |
| 1777466909 | 12.22° C | 90% | 1018.3 hPa | 0 mm | - | 0 W/m² | - |
| 1777464410 | 12.22° C | 89% | 1018.5 hPa | 0 mm | - | 0 W/m² | - |
| 1777463301 | 12.78° C | 89% | 1018.7 hPa | 0 mm | - | 0 W/m² | - |
| 1777461150 | 12.78° C | 90% | 1019.1 hPa | 0 mm | - | 0 W/m² | - |
| 1777459702 | 12.78° C | 89% | 1019 hPa | 0 mm | - | 0 W/m² | - |
| 1777457899 | 12.78° C | 89% | 1019.1 hPa | 0 mm | - | 0 W/m² | - |
* Rain latest hour (hover to see other rain measurements)
** Current wind speed in m/s (hover to see current wind gust speed)